Time;durP1;ratioP1;P1;durP2;ratioP2;P2;SDS_P1;SDS_P2;PMS_P1;PMS_P2;Temp;Humidity;BMP_temperature;BMP_pressure;BME280_temperature;BME280_humidity;BME280_pressure;Samples;Min_cycle;Max_cycle;Signal;HPM_P1;HPM_P2
2021/08/01 00:01:05;;;;;;;8.90;8.00;;;16.80;99.90;;;;;;6130455;23;20224;-73
2021/08/01 00:03:33;;;;;;;8.18;7.22;;;16.80;99.90;;;;;;6129910;23;20880;-73
2021/08/01 00:06:03;;;;;;;8.07;7.27;;;16.80;99.90;;;;;;6130293;23;20178;-73
2021/08/01 00:08:32;;;;;;;11.47;9.13;;;16.80;99.90;;;;;;6130498;23;20420;-73
2021/08/01 00:11:00;;;;;;;8.13;7.33;;;16.70;99.90;;;;;;6166578;23;20729;-72
2021/08/01 00:13:29;;;;;;;9.63;8.30;;;16.70;99.90;;;;;;6130507;23;20746;-73
2021/08/01 00:15:58;;;;;;;9.10;7.57;;;16.70;99.90;;;;;;6166415;23;20428;-73
2021/08/01 00:18:27;;;;;;;9.47;7.93;;;16.70;99.90;;;;;;6130569;23;20511;-73
2021/08/01 00:20:55;;;;;;;10.70;7.60;;;16.70;99.90;;;;;;6130215;23;20808;-73
2021/08/01 00:23:23;;;;;;;8.80;7.90;;;16.60;99.90;;;;;;6167143;23;20399;-73
2021/08/01 00:25:53;;;;;;;10.07;8.87;;;16.60;99.90;;;;;;6130112;23;20480;-73
2021/08/01 00:28:21;;;;;;;8.30;7.60;;;16.60;99.90;;;;;;6166343;23;20436;-73
2021/08/01 00:30:49;;;;;;;10.45;9.10;;;16.60;99.90;;;;;;6165183;23;20405;-73
2021/08/01 00:33:17;;;;;;;9.93;8.37;;;16.70;99.90;;;;;;6166581;23;20169;-73
2021/08/01 00:35:46;;;;;;;9.95;8.95;;;16.70;99.90;;;;;;6129234;23;20440;-73
2021/08/01 00:38:14;;;;;;;9.20;7.97;;;16.70;99.90;;;;;;6130570;23;20173;-72
2021/08/01 00:40:44;;;;;;;9.37;8.17;;;16.70;99.90;;;;;;6130120;23;20770;-72
2021/08/01 00:43:14;;;;;;;9.80;8.40;;;16.70;99.90;;;;;;6130007;23;20420;-73
2021/08/01 00:45:43;;;;;;;12.60;9.20;;;16.60;99.90;;;;;;6156576;23;20713;-73
2021/08/01 00:48:13;;;;;;;9.33;8.30;;;16.60;99.90;;;;;;6130056;23;20420;-73
2021/08/01 00:50:43;;;;;;;11.50;9.00;;;16.60;99.90;;;;;;6130014;23;20743;-73
2021/08/01 00:53:13;;;;;;;9.83;8.10;;;16.60;99.90;;;;;;6166328;23;20777;-73
2021/08/01 00:55:44;;;;;;;11.40;9.37;;;16.60;99.90;;;;;;6129976;23;20470;-73
2021/08/01 00:58:14;;;;;;;10.67;9.67;;;16.60;99.90;;;;;;6130028;23;20412;-72
2021/08/01 01:03:42;;;;;;;12.40;9.88;;;16.60;99.90;;;;;;6161298;23;20409;-73
2021/08/01 01:06:21;;;;;;;10.90;9.60;;;16.60;99.90;;;;;;6131453;23;20190;-73
2021/08/01 01:08:59;;;;;;;10.77;9.60;;;16.60;99.90;;;;;;6166151;23;20408;-73
2021/08/01 01:11:42;;;;;;;10.40;9.30;;;16.50;99.90;;;;;;6165846;23;20427;-73
2021/08/01 01:14:26;;;;;;;11.73;10.13;;;16.60;99.90;;;;;;6129701;23;20412;-73
2021/08/01 01:17:00;;;;;;;11.33;10.00;;;16.60;99.90;;;;;;6130035;23;20849;-73
2021/08/01 01:19:49;;;;;;;11.03;9.20;;;16.50;99.90;;;;;;6166419;23;20508;-73
2021/08/01 01:22:27;;;;;;;10.40;9.30;;;16.50;99.90;;;;;;6129831;23;20531;-73
2021/08/01 01:25:20;;;;;;;12.47;9.80;;;16.50;99.90;;;;;;6155976;23;20384;-73
2021/08/01 01:27:55;;;;;;;10.50;9.47;;;16.50;99.90;;;;;;6124858;23;20433;-73
2021/08/01 01:30:26;;;;;;;12.33;9.60;;;16.60;99.90;;;;;;6124861;23;20368;-73
2021/08/01 01:33:05;;;;;;;12.03;10.87;;;16.50;99.90;;;;;;6124829;23;20763;-73
2021/08/01 01:35:36;;;;;;;12.20;10.57;;;16.50;99.90;;;;;;6125216;23;20730;-72
2021/08/01 02:59:50;;;;;;;13.37;12.00;;;16.50;99.90;;;;;;6188555;23;20438;-71
2021/08/01 03:02:19;;;;;;;13.80;11.70;;;16.50;99.90;;;;;;6204361;23;20912;-71
2021/08/01 03:04:57;;;;;;;13.70;12.40;;;16.50;99.90;;;;;;6159531;23;20382;-71
2021/08/01 03:07:28;;;;;;;13.37;11.97;;;16.50;99.90;;;;;;6160630;23;20457;-71
2021/08/01 03:09:58;;;;;;;18.70;11.70;;;16.50;99.90;;;;;;6160620;23;20701;-72
2021/08/01 03:12:26;;;;;;;13.10;11.70;;;16.50;99.90;;;;;;6160568;23;20463;-72
2021/08/01 03:14:58;;;;;;;13.30;11.80;;;16.50;99.90;;;;;;6160508;23;20439;-72
2021/08/01 03:17:26;;;;;;;16.50;12.40;;;16.40;99.90;;;;;;6160874;23;20415;-72
2021/08/01 03:19:55;;;;;;;15.75;13.23;;;16.50;99.90;;;;;;6158655;23;20404;-71
2021/08/01 03:22:24;;;;;;;15.43;13.60;;;16.50;99.90;;;;;;6196757;23;20472;-71
2021/08/01 03:24:52;;;;;;;12.30;10.63;;;16.50;99.90;;;;;;6197791;23;20404;-72
2021/08/01 03:27:21;;;;;;;14.43;12.93;;;16.50;99.90;;;;;;6160411;23;20473;-71
2021/08/01 03:29:50;;;;;;;12.93;11.70;;;16.50;99.90;;;;;;6160812;23;20506;-72
2021/08/01 03:32:21;;;;;;;12.30;10.90;;;16.50;99.90;;;;;;6196774;23;20416;-72
2021/08/01 03:34:53;;;;;;;14.60;13.10;;;16.50;99.90;;;;;;6197085;23;20384;-71
2021/08/01 03:37:26;;;;;;;13.17;11.87;;;16.50;99.90;;;;;;6160698;23;20411;-72
2021/08/01 03:40:30;;;;;;;14.83;12.83;;;16.50;99.90;;;;;;6186730;23;20428;-72
2021/08/01 03:42:58;;;;;;;15.40;13.67;;;16.50;99.90;;;;;;6160229;23;20443;-71
2021/08/01 03:45:27;;;;;;;14.60;12.57;;;16.50;99.90;;;;;;6196579;23;20407;-72
2021/08/01 03:47:56;;;;;;;14.60;13.13;;;16.50;99.90;;;;;;6196622;23;20430;-72
2021/08/01 03:50:25;;;;;;;14.70;12.60;;;16.50;99.90;;;;;;6196331;23;20400;-72
2021/08/01 03:52:53;;;;;;;16.70;14.90;;;16.50;99.90;;;;;;6195111;23;20486;-72
2021/08/01 03:55:21;;;;;;;20.03;15.37;;;16.50;99.90;;;;;;6186821;23;20412;-72
2021/08/01 03:57:49;;;;;;;16.43;13.87;;;16.50;99.90;;;;;;6155279;23;20492;-72
2021/08/01 04:00:17;;;;;;;15.60;14.00;;;16.50;99.90;;;;;;6167340;23;20417;-72
2021/08/01 04:02:46;;;;;;;14.90;13.40;;;16.50;99.90;;;;;;6154964;23;21046;-72
2021/08/01 04:05:15;;;;;;;18.57;13.93;;;16.50;99.90;;;;;;6166568;23;20400;-72
2021/08/01 04:07:43;;;;;;;17.37;14.10;;;16.50;99.90;;;;;;6155623;23;20739;-72
2021/08/01 04:10:12;;;;;;;15.47;13.93;;;16.40;99.90;;;;;;6166463;23;20496;-72
2021/08/01 04:12:40;;;;;;;17.37;14.33;;;16.40;99.90;;;;;;6166375;23;20915;-72
2021/08/01 04:15:11;;;;;;;21.13;15.23;;;16.40;99.90;;;;;;6166730;23;20407;-71
2021/08/01 04:17:39;;;;;;;16.53;14.83;;;16.40;99.90;;;;;;6166838;23;20389;-71
2021/08/01 04:20:09;;;;;;;16.02;14.43;;;16.40;99.90;;;;;;6165531;23;20885;-71
2021/08/01 04:22:39;;;;;;;16.30;13.93;;;16.50;99.90;;;;;;6154955;23;20583;-72
2021/08/01 04:25:08;;;;;;;19.55;15.70;;;16.50;99.90;;;;;;6165999;23;20419;-72
2021/08/01 04:27:37;;;;;;;18.13;14.83;;;16.50;99.90;;;;;;6156912;23;20200;-72
2021/08/01 04:30:06;;;;;;;18.40;16.17;;;16.50;99.90;;;;;;6156477;23;20954;-71
2021/08/01 04:32:34;;;;;;;16.87;15.07;;;16.50;99.90;;;;;;6154791;23;20456;-72
2021/08/01 04:35:02;;;;;;;16.10;14.40;;;16.50;99.90;;;;;;6166307;23;20905;-72
2021/08/01 04:37:31;;;;;;;17.00;15.20;;;16.50;99.90;;;;;;6166645;23;20429;-72
2021/08/01 04:40:00;;;;;;;17.20;15.40;;;16.50;99.90;;;;;;6154631;23;20727;-72
2021/08/01 04:42:28;;;;;;;16.10;14.50;;;16.50;99.90;;;;;;6154773;23;20753;-72
2021/08/01 04:44:56;;;;;;;17.50;13.70;;;16.50;99.90;;;;;;6154791;23;20979;-72
2021/08/01 04:47:24;;;;;;;16.50;14.93;;;16.50;99.90;;;;;;6166281;23;20379;-72
2021/08/01 04:49:53;;;;;;;19.83;16.60;;;16.50;99.90;;;;;;6166615;23;20432;-72
2021/08/01 04:52:23;;;;;;;18.45;16.10;;;16.50;99.90;;;;;;6166047;23;20401;-72
2021/08/01 04:54:51;;;;;;;17.27;15.57;;;16.60;99.90;;;;;;6166330;23;20201;-72
2021/08/01 04:57:20;;;;;;;19.73;17.83;;;16.60;99.90;;;;;;6156431;23;20413;-72
2021/08/01 04:59:49;;;;;;;20.57;17.33;;;16.60;99.90;;;;;;6154602;23;20279;-72
2021/08/01 05:02:17;;;;;;;18.57;16.60;;;16.60;99.90;;;;;;6165947;23;20437;-72
2021/08/01 05:04:46;;;;;;;18.07;16.17;;;16.60;99.90;;;;;;6166272;23;20917;-72
2021/08/01 05:07:14;;;;;;;17.00;15.20;;;16.60;99.90;;;;;;6166321;23;20472;-72
2021/08/01 05:09:42;;;;;;;16.87;15.13;;;16.60;99.90;;;;;;6165963;23;20397;-72
2021/08/01 05:12:10;;;;;;;19.67;17.70;;;16.60;99.90;;;;;;6166170;23;20425;-72
2021/08/01 05:14:40;;;;;;;19.83;16.70;;;16.60;99.90;;;;;;6166349;23;20456;-72
2021/08/01 05:17:08;;;;;;;21.70;16.77;;;16.60;99.90;;;;;;6129779;23;20487;-72
2021/08/01 05:19:39;;;;;;;18.93;17.03;;;16.60;99.90;;;;;;6165885;23;20917;-72
2021/08/01 05:22:08;;;;;;;18.70;16.80;;;16.70;99.90;;;;;;6129692;23;20449;-72
2021/08/01 05:24:37;;;;;;;19.17;16.30;;;16.70;99.90;;;;;;6129779;23;20459;-72
2021/08/01 05:27:05;;;;;;;21.02;18.27;;;16.70;99.90;;;;;;6165045;23;20404;-72
2021/08/01 05:29:34;;;;;;;20.80;18.00;;;16.80;99.90;;;;;;6165518;23;20203;-71
2021/08/01 05:32:04;;;;;;;22.50;18.70;;;16.80;99.90;;;;;;6164553;23;20423;-72
2021/08/01 05:34:32;;;;;;;20.33;18.13;;;16.90;99.90;;;;;;6130201;23;20620;-71
2021/08/01 05:37:01;;;;;;;24.57;19.37;;;16.90;99.90;;;;;;6165484;23;20903;-72
2021/08/01 05:39:29;;;;;;;22.90;19.93;;;16.90;99.90;;;;;;6165829;23;20448;-72
2021/08/01 05:41:57;;;;;;;23.90;21.30;;;16.90;99.90;;;;;;6165563;23;20515;-72
2021/08/01 05:44:25;;;;;;;25.13;19.60;;;16.90;99.90;;;;;;6129641;23;20420;-72
2021/08/01 05:46:53;;;;;;;23.33;20.80;;;16.90;99.90;;;;;;6166543;23;20499;-71
2021/08/01 05:49:23;;;;;;;26.73;23.03;;;16.80;99.90;;;;;;6165784;23;20397;-72
2021/08/01 05:51:51;;;;;;;25.43;22.00;;;16.80;99.90;;;;;;6165549;23;20409;-72
2021/08/01 05:54:19;;;;;;;28.57;23.50;;;16.80;99.90;;;;;;6165659;23;20396;-72
2021/08/01 05:56:47;;;;;;;28.30;23.20;;;16.80;99.90;;;;;;6165576;23;20408;-72
2021/08/01 05:59:15;;;;;;;26.37;23.27;;;16.80;99.90;;;;;;6177998;23;20414;-72
2021/08/01 06:01:44;;;;;;;27.67;22.50;;;16.90;99.90;;;;;;6195331;23;20945;-72
2021/08/01 06:04:12;;;;;;;27.00;24.10;;;16.90;99.90;;;;;;6158521;23;20411;-71
2021/08/01 06:06:42;;;;;;;26.83;23.93;;;16.90;99.90;;;;;;6195796;23;20638;-72
2021/08/01 06:09:10;;;;;;;25.73;22.90;;;16.90;99.90;;;;;;6159198;23;20451;-72
2021/08/01 06:11:38;;;;;;;26.70;22.40;;;16.90;99.90;;;;;;6185412;23;20896;-72
2021/08/01 06:14:06;;;;;;;26.57;21.97;;;17.00;99.90;;;;;;6196077;23;20482;-72
2021/08/01 06:16:35;;;;;;;28.33;24.70;;;17.00;99.90;;;;;;6185060;23;20404;-71
2021/08/01 06:19:07;;;;;;;30.50;24.67;;;17.00;99.90;;;;;;6196060;23;20366;-72
2021/08/01 06:21:36;;;;;;;31.03;24.43;;;17.00;99.90;;;;;;6158861;23;20439;-72
2021/08/01 06:24:06;;;;;;;28.47;25.40;;;17.00;99.90;;;;;;6185315;23;20957;-72
2021/08/01 06:26:34;;;;;;;28.13;24.70;;;17.10;99.90;;;;;;6185401;23;20393;-71
2021/08/01 06:29:02;;;;;;;27.73;24.73;;;17.10;99.90;;;;;;6158775;23;20717;-72
2021/08/01 06:31:31;;;;;;;27.07;24.17;;;17.10;99.90;;;;;;6158645;23;20443;-72
2021/08/01 06:33:59;;;;;;;27.10;23.90;;;17.10;99.90;;;;;;6195722;23;20399;-72
2021/08/01 06:36:27;;;;;;;24.70;22.05;;;17.10;99.90;;;;;;6195825;23;20375;-72
2021/08/01 06:38:55;;;;;;;27.60;23.27;;;17.10;99.90;;;;;;6185603;23;20222;-72
2021/08/01 06:41:25;;;;;;;26.13;22.90;;;17.10;99.90;;;;;;6197626;23;20522;-72
2021/08/01 06:43:53;;;;;;;24.67;21.67;;;17.10;99.90;;;;;;6160820;23;20438;-72
2021/08/01 06:46:21;;;;;;;27.77;24.87;;;17.20;99.90;;;;;;6197217;23;20774;-72
2021/08/01 06:48:49;;;;;;;22.60;19.73;;;17.10;99.90;;;;;;6160754;23;20415;-72
2021/08/01 06:51:18;;;;;;;26.97;22.80;;;17.20;99.90;;;;;;6160612;23;20398;-72
2021/08/01 06:53:46;;;;;;;25.37;21.70;;;17.20;99.90;;;;;;6197179;23;20424;-72
2021/08/01 06:56:14;;;;;;;24.27;21.10;;;17.20;99.90;;;;;;6160716;23;20423;-72
2021/08/01 06:58:43;;;;;;;20.70;18.50;;;17.30;99.90;;;;;;6155701;23;20417;-72
2021/08/01 07:01:13;;;;;;;22.77;20.20;;;17.30;99.90;;;;;;6167009;23;20417;-71
2021/08/01 07:03:41;;;;;;;22.10;19.77;;;17.30;99.90;;;;;;6167048;23;20405;-72
2021/08/01 07:06:10;;;;;;;23.23;19.97;;;17.40;99.90;;;;;;6155550;23;20408;-71
2021/08/01 07:08:38;;;;;;;24.23;20.07;;;17.40;99.90;;;;;;6167378;23;20400;-71
2021/08/01 07:11:06;;;;;;;22.13;19.93;;;17.40;99.90;;;;;;6166914;23;20416;-71
2021/08/01 07:13:35;;;;;;;22.30;20.10;;;17.40;99.90;;;;;;6166997;23;20925;-72
2021/08/01 07:16:06;;;;;;;23.70;21.10;;;17.50;99.90;;;;;;6167011;23;20856;-72
2021/08/01 07:18:34;;;;;;;22.77;20.37;;;17.50;99.90;;;;;;6155691;23;20409;-72
2021/08/01 07:21:02;;;;;;;23.80;20.53;;;17.50;99.90;;;;;;6166834;23;20448;-71
2021/08/01 07:23:30;;;;;;;21.30;19.17;;;17.60;99.90;;;;;;6166838;23;20431;-72
2021/08/01 07:25:58;;;;;;;22.57;19.10;;;17.60;99.90;;;;;;6167630;23;20394;-72
2021/08/01 07:28:27;;;;;;;22.40;20.00;;;17.70;99.90;;;;;;6167598;23;20902;-71
2021/08/01 07:30:55;;;;;;;23.23;20.70;;;17.70;99.90;;;;;;6157560;23;20759;-71
2021/08/01 07:33:26;;;;;;;23.40;20.90;;;17.70;99.90;;;;;;6167031;23;20569;-72
2021/08/01 07:35:54;;;;;;;23.97;21.30;;;17.70;99.90;;;;;;6167464;23;20872;-72
2021/08/01 07:38:24;;;;;;;23.88;21.35;;;17.70;99.90;;;;;;6165557;23;20888;-71
2021/08/01 07:40:52;;;;;;;22.63;20.20;;;17.80;99.90;;;;;;6167106;23;20172;-71
2021/08/01 07:43:21;;;;;;;25.75;22.95;;;17.90;99.90;;;;;;6165968;23;20408;-72
2021/08/01 07:45:49;;;;;;;24.87;22.20;;;18.00;99.90;;;;;;6166322;23;20174;-71
2021/08/01 07:48:17;;;;;;;26.83;22.07;;;18.00;99.90;;;;;;6157154;23;20499;-71
2021/08/01 07:50:47;;;;;;;25.13;21.40;;;18.00;99.90;;;;;;6166328;23;20480;-72
2021/08/01 07:53:15;;;;;;;26.33;23.40;;;18.00;99.90;;;;;;6167003;23;20900;-72
2021/08/01 07:58:49;;;;;;;29.23;23.53;;;18.00;99.90;;;;;;6203912;23;20521;-74
2021/08/01 08:01:17;;;;;;;35.30;24.83;;;18.00;99.90;;;;;;6189826;23;20488;-74
2021/08/01 08:03:45;;;;;;;32.53;25.90;;;18.10;99.90;;;;;;6189837;23;20746;-74
2021/08/01 08:06:15;;;;;;;34.23;26.50;;;18.10;99.90;;;;;;6189896;23;20415;-74
2021/08/01 08:08:43;;;;;;;32.38;28.27;;;18.10;99.90;;;;;;6216802;23;20402;-74
2021/08/01 08:11:12;;;;;;;32.63;28.40;;;18.10;99.90;;;;;;6216737;23;20205;-74
2021/08/01 08:13:40;;;;;;;32.63;27.70;;;18.10;99.90;;;;;;6189888;23;20403;-74
2021/08/01 08:16:08;;;;;;;36.63;32.45;;;18.20;99.90;;;;;;6224379;23;20397;-74
2021/08/01 08:18:36;;;;;;;34.50;30.70;;;18.30;99.90;;;;;;6226387;23;20218;-74
2021/08/01 08:21:04;;;;;;;38.00;28.80;;;18.40;99.90;;;;;;6226348;23;20758;-74
2021/08/01 08:23:34;;;;;;;32.03;28.53;;;18.40;99.90;;;;;;6189513;23;20434;-74
2021/08/01 08:26:02;;;;;;;33.03;29.67;;;18.60;99.90;;;;;;6226307;23;20394;-74
2021/08/01 08:28:30;;;;;;;31.70;28.00;;;18.80;99.90;;;;;;6226164;23;20427;-74
2021/08/01 08:30:59;;;;;;;32.10;28.87;;;18.90;99.90;;;;;;6189476;23;20522;-74
2021/08/01 08:33:27;;;;;;;29.57;26.47;;;19.00;99.90;;;;;;6189442;23;20411;-74
2021/08/01 08:35:55;;;;;;;32.70;29.30;;;19.10;99.90;;;;;;6226450;23;20395;-74
2021/08/01 08:38:23;;;;;;;33.13;27.63;;;19.20;99.90;;;;;;6225988;23;20399;-74
2021/08/01 08:40:53;;;;;;;29.42;26.50;;;19.30;99.90;;;;;;6225635;23;20398;-73
2021/08/01 08:43:21;;;;;;;28.57;25.67;;;19.30;99.90;;;;;;6189216;23;20665;-74
2021/08/01 08:45:50;;;;;;;29.37;26.27;;;19.40;99.90;;;;;;6189393;23;20417;-74
2021/08/01 08:48:19;;;;;;;28.23;25.33;;;19.40;99.90;;;;;;6226522;23;20404;-74
2021/08/01 08:50:50;;;;;;;28.70;25.60;;;19.40;99.90;;;;;;6225845;23;20892;-74
2021/08/01 08:53:21;;;;;;;27.23;24.27;;;19.40;99.90;;;;;;6226741;23;20458;-74
2021/08/01 08:55:51;;;;;;;27.40;24.60;;;19.50;99.90;;;;;;6216269;23;20391;-74
2021/08/01 08:58:29;;;;;;;25.77;23.10;;;19.60;99.90;;;;;;6226122;23;20434;-74
2021/08/01 09:00:57;;;;;;;27.93;24.93;;;19.80;99.90;;;;;;6226333;23;20461;-73
2021/08/01 09:03:25;;;;;;;25.83;23.13;;;19.90;99.90;;;;;;6216132;23;20454;-74
2021/08/01 09:05:56;;;;;;;23.70;21.30;;;20.10;99.90;;;;;;6225899;23;20426;-74
2021/08/01 09:08:25;;;;;;;25.10;21.70;;;20.20;99.90;;;;;;6226288;23;20379;-74
2021/08/01 09:10:54;;;;;;;23.00;20.90;;;20.30;99.90;;;;;;6189534;23;20442;-74
2021/08/01 09:13:45;;;;;;;22.45;20.05;;;20.30;99.90;;;;;;6189190;23;20479;-74
2021/08/01 09:16:15;;;;;;;21.70;19.13;;;20.30;99.90;;;;;;6174954;23;20230;-74
2021/08/01 09:18:43;;;;;;;19.25;17.45;;;20.30;99.90;;;;;;6225202;23;20429;-73
2021/08/01 09:21:30;;;;;;;17.97;16.10;;;20.30;99.90;;;;;;6189022;23;20191;-74
2021/08/01 09:23:58;;;;;;;17.70;16.00;;;20.30;99.90;;;;;;6225734;23;20458;-74
2021/08/01 09:26:42;;;;;;;17.00;15.30;;;20.20;99.90;;;;;;6216063;23;20481;-74
2021/08/01 09:29:16;;;;;;;16.67;15.07;;;20.20;99.90;;;;;;6226491;23;20386;-74
2021/08/01 09:31:44;;;;;;;17.80;16.10;;;20.10;99.90;;;;;;6189107;23;20493;-74
2021/08/01 09:34:25;;;;;;;18.90;17.00;;;20.10;99.90;;;;;;6225861;23;20398;-74
2021/08/01 09:37:02;;;;;;;17.23;15.73;;;20.10;99.90;;;;;;6225876;23;20386;-74
2021/08/01 09:39:38;;;;;;;15.63;14.23;;;20.10;99.90;;;;;;6189188;23;20743;-74
2021/08/01 09:42:10;;;;;;;17.15;15.50;;;20.20;99.90;;;;;;6226204;23;20680;-74
2021/08/01 09:44:41;;;;;;;15.87;14.50;;;20.40;99.90;;;;;;6189030;23;20191;-73
2021/08/01 09:47:23;;;;;;;16.27;14.77;;;20.60;99.90;;;;;;6189062;23;20407;-73
2021/08/01 09:50:06;;;;;;;16.70;15.30;;;20.80;99.90;;;;;;6224354;23;20432;-73
2021/08/01 09:52:35;;;;;;;15.77;14.47;;;21.00;99.90;;;;;;6188985;23;20242;-73
2021/08/01 09:55:04;;;;;;;15.20;13.80;;;21.10;99.90;;;;;;6225700;23;20521;-74
2021/08/01 09:57:32;;;;;;;14.43;13.27;;;21.10;99.90;;;;;;6189060;23;20951;-74
2021/08/01 10:00:10;;;;;;;13.00;12.00;;;21.10;99.90;;;;;;6215540;23;20433;-74
2021/08/01 10:02:39;;;;;;;14.47;13.23;;;21.10;99.90;;;;;;6188834;23;20430;-73
2021/08/01 10:05:19;;;;;;;12.30;11.40;;;21.20;99.90;;;;;;6225643;23;20462;-73
2021/08/01 10:07:49;;;;;;;12.13;10.90;;;21.30;99.90;;;;;;6225700;23;20835;-74
2021/08/01 10:10:22;;;;;;;12.77;11.53;;;21.30;99.90;;;;;;6188281;23;20419;-73
2021/08/01 10:12:52;;;;;;;12.10;11.10;;;21.40;99.90;;;;;;6226099;23;20485;-74
2021/08/01 10:15:22;;;;;;;11.13;10.23;;;21.40;99.90;;;;;;6227225;23;20206;-74
2021/08/01 10:17:50;;;;;;;12.50;11.43;;;21.40;99.90;;;;;;6190914;23;20504;-74
2021/08/01 10:20:18;;;;;;;12.70;11.50;;;21.50;99.90;;;;;;6227994;23;20889;-74
2021/08/01 10:22:47;;;;;;;11.60;10.60;;;21.50;99.90;;;;;;6217741;23;20430;-74
2021/08/01 10:25:21;;;;;;;10.10;9.30;;;21.60;99.90;;;;;;6227966;23;20977;-74
2021/08/01 10:27:53;;;;;;;9.10;8.40;;;21.60;99.90;;;;;;6190720;23;20410;-74
2021/08/01 10:30:27;;;;;;;7.67;7.07;;;21.60;99.90;;;;;;6227610;23;20407;-73
2021/08/01 10:33:04;;;;;;;9.00;8.30;;;21.60;99.90;;;;;;6190774;23;20784;-74
2021/08/01 10:35:36;;;;;;;9.20;8.50;;;21.60;99.90;;;;;;6227946;23;20702;-74
2021/08/01 10:38:08;;;;;;;9.07;8.37;;;21.60;99.90;;;;;;6191159;23;20461;-74
2021/08/01 10:40:36;;;;;;;9.80;8.90;;;21.60;99.90;;;;;;6228182;23;20454;-74
2021/08/01 10:43:09;;;;;;;10.77;9.77;;;21.60;99.90;;;;;;6189203;23;20492;-74
2021/08/01 10:45:39;;;;;;;10.43;9.63;;;21.70;99.90;;;;;;6227497;23;20167;-74
2021/08/01 10:48:08;;;;;;;10.05;9.35;;;21.80;99.90;;;;;;6189687;23;20930;-74
2021/08/01 10:50:37;;;;;;;10.73;9.87;;;21.80;99.90;;;;;;6217374;23;20266;-74
2021/08/01 10:53:26;;;;;;;10.50;9.70;;;21.80;99.90;;;;;;6190643;23;20421;-74
2021/08/01 10:56:39;;;;;;;11.50;10.60;;;21.90;99.90;;;;;;6217685;23;20397;-73
2021/08/01 10:59:07;;;;;;;11.50;10.50;;;21.90;99.90;;;;;;6222338;23;20800;-74
2021/08/01 11:02:08;;;;;;;6.40;5.90;;;21.90;99.90;;;;;;6217439;23;20502;-74
2021/08/01 11:04:38;;;;;;;2.60;2.40;;;21.80;99.90;;;;;;6227884;23;20442;-73
2021/08/01 11:07:06;;;;;;;2.70;2.50;;;21.60;99.90;;;;;;6217476;23;20441;-71
2021/08/01 11:09:34;;;;;;;3.80;3.40;;;21.30;99.90;;;;;;6227899;23;20431;-71
2021/08/01 11:12:32;;;;;;;5.57;5.17;;;21.00;99.90;;;;;;6190396;23;20431;-71
2021/08/01 11:15:01;;;;;;;5.33;4.83;;;20.70;99.90;;;;;;6217031;23;20427;-71
2021/08/01 11:18:07;;;;;;;6.90;6.30;;;20.40;99.90;;;;;;6189054;23;20448;-71
2021/08/01 11:20:53;;;;;;;7.80;7.07;;;20.40;99.90;;;;;;6217435;23;20241;-71
2021/08/01 11:23:21;;;;;;;7.93;7.23;;;20.20;99.90;;;;;;6227764;23;20387;-71
2021/08/01 11:26:06;;;;;;;8.30;7.50;;;20.00;99.90;;;;;;6189781;23;20422;-71
2021/08/01 11:28:36;;;;;;;7.60;6.90;;;19.90;99.90;;;;;;6217354;23;20426;-70
2021/08/01 11:31:10;;;;;;;7.37;6.67;;;19.80;99.90;;;;;;6226900;23;20415;-71
2021/08/01 11:33:40;;;;;;;6.97;6.37;;;19.70;99.90;;;;;;6190357;23;20407;-70
2021/08/01 11:36:23;;;;;;;7.30;6.70;;;19.60;99.90;;;;;;6227049;23;20423;-70
2021/08/01 11:39:06;;;;;;;9.10;8.30;;;19.60;99.90;;;;;;6226273;23;20425;-70
2021/08/01 11:41:38;;;;;;;8.33;7.40;;;19.60;99.90;;;;;;6226901;23;20415;-70
2021/08/01 11:44:11;;;;;;;9.50;8.50;;;19.60;99.90;;;;;;6226572;23;20402;-71
2021/08/01 11:47:10;;;;;;;9.83;8.97;;;19.60;99.90;;;;;;6217120;23;20185;-70
2021/08/01 11:49:49;;;;;;;9.70;8.80;;;19.60;99.90;;;;;;6227368;23;20384;-70
2021/08/01 11:52:44;;;;;;;10.50;9.60;;;19.60;99.90;;;;;;6227276;23;20415;-70
2021/08/01 11:55:16;;;;;;;10.03;9.07;;;19.60;99.90;;;;;;6226986;23;20847;-71
2021/08/01 11:57:51;;;;;;;11.43;10.53;;;19.60;99.90;;;;;;6201102;23;20389;-71
2021/08/01 12:00:25;;;;;;;8.87;8.17;;;19.60;99.90;;;;;;6227340;23;20461;-70
2021/08/01 12:02:56;;;;;;;9.50;8.60;;;19.60;99.90;;;;;;6189856;23;20431;-70
2021/08/01 12:05:42;;;;;;;10.00;9.20;;;19.60;99.90;;;;;;6189720;23;20431;-70
2021/08/01 12:08:29;;;;;;;10.77;9.67;;;19.50;99.90;;;;;;6188691;23;20405;-71
2021/08/01 12:11:09;;;;;;;10.50;9.50;;;19.50;99.90;;;;;;6189823;23;20957;-70
2021/08/01 12:13:37;;;;;;;6.43;5.33;;;19.50;99.90;;;;;;6190058;23;20457;-71
2021/08/01 12:16:16;;;;;;;3.63;3.33;;;19.40;99.90;;;;;;6189886;23;20423;-72
2021/08/01 12:18:44;;;;;;;2.80;2.60;;;19.30;99.90;;;;;;6189796;23;20407;-71
2021/08/01 12:21:34;;;;;;;2.80;2.47;;;19.20;99.90;;;;;;6226575;23;20414;-71
2021/08/01 12:24:06;;;;;;;2.30;1.93;;;19.10;99.90;;;;;;6226910;23;20420;-71
2021/08/01 12:26:36;;;;;;;1.40;1.30;;;19.00;99.90;;;;;;6189571;23;20415;-71
2021/08/01 12:29:04;;;;;;;1.87;1.40;;;19.00;99.90;;;;;;6189573;23;20411;-71
2021/08/01 12:31:33;;;;;;;1.40;1.30;;;18.90;99.90;;;;;;6226421;23;20415;-71
2021/08/01 12:34:01;;;;;;;2.20;1.60;;;18.90;99.90;;;;;;6226094;23;20457;-71
2021/08/01 12:36:31;;;;;;;1.83;1.50;;;18.80;99.90;;;;;;6188430;23;20757;-71
2021/08/01 12:39:07;;;;;;;1.60;1.27;;;18.80;99.90;;;;;;6189325;23;20207;-71
2021/08/01 12:41:38;;;;;;;1.50;1.30;;;18.80;99.90;;;;;;6188815;23;20456;-71
2021/08/01 12:44:14;;;;;;;1.50;1.30;;;18.70;99.90;;;;;;6226414;23;20494;-71
2021/08/01 12:46:42;;;;;;;5.80;1.77;;;18.70;99.90;;;;;;6226523;23;20385;-71
2021/08/01 12:49:11;;;;;;;1.50;1.30;;;18.60;99.90;;;;;;6226049;23;20399;-71
2021/08/01 12:51:46;;;;;;;2.40;1.60;;;18.60;99.90;;;;;;6225966;23;20446;-71
2021/08/01 12:54:18;;;;;;;1.67;1.30;;;18.50;99.90;;;;;;6189375;23;20805;-71
2021/08/01 12:57:07;;;;;;;1.47;1.37;;;18.50;99.90;;;;;;6216318;23;20398;-71
2021/08/01 12:59:36;;;;;;;1.60;1.40;;;18.50;99.90;;;;;;6225783;23;20506;-71
2021/08/01 13:02:05;;;;;;;2.20;1.40;;;18.50;99.90;;;;;;6225984;23;20458;-73
2021/08/01 13:04:44;;;;;;;1.60;1.50;;;18.50;99.90;;;;;;6188567;23;20420;-74
2021/08/01 13:07:12;;;;;;;4.30;2.60;;;18.50;99.90;;;;;;6226599;23;20155;-74
2021/08/01 13:09:42;;;;;;;1.60;1.50;;;18.50;99.90;;;;;;6225701;23;20406;-74
2021/08/01 13:12:16;;;;;;;2.23;1.40;;;18.50;99.90;;;;;;6226206;23;20219;-74
2021/08/01 13:14:44;;;;;;;2.20;2.00;;;18.40;99.90;;;;;;6225915;23;20398;-74
2021/08/01 13:17:14;;;;;;;2.20;1.67;;;18.30;99.90;;;;;;6188919;23;20466;-74
2021/08/01 13:19:43;;;;;;;3.63;1.93;;;18.30;99.90;;;;;;6225987;23;20944;-74
2021/08/01 13:22:12;;;;;;;3.07;2.10;;;18.30;99.90;;;;;;6225799;23;20415;-74
2021/08/01 13:24:44;;;;;;;1.93;1.73;;;18.30;99.90;;;;;;6225807;23;20522;-74
2021/08/01 13:27:14;;;;;;;3.80;3.50;;;18.30;99.90;;;;;;6226257;23;20818;-74
2021/08/01 13:29:43;;;;;;;2.90;2.40;;;18.30;99.90;;;;;;6226572;23;20427;-74
2021/08/01 13:32:14;;;;;;;2.80;2.60;;;18.40;99.90;;;;;;6188954;23;20434;-74
2021/08/01 13:34:43;;;;;;;2.63;2.43;;;18.40;99.90;;;;;;6189134;23;20442;-74
2021/08/01 13:37:20;;;;;;;2.30;2.10;;;18.40;99.90;;;;;;6189049;23;20417;-74
2021/08/01 13:39:52;;;;;;;3.63;3.30;;;18.40;99.90;;;;;;6187902;23;20414;-71
2021/08/01 13:42:22;;;;;;;3.70;3.40;;;18.50;99.90;;;;;;6225602;23;20215;-71
2021/08/01 13:45:02;;;;;;;3.70;3.40;;;18.50;99.90;;;;;;6225426;23;20434;-72
2021/08/01 13:47:35;;;;;;;3.30;3.00;;;18.50;99.90;;;;;;6188677;23;20456;-72
2021/08/01 13:50:09;;;;;;;3.47;3.17;;;18.50;99.90;;;;;;6188515;23;20442;-72
2021/08/01 13:52:38;;;;;;;3.40;3.20;;;18.50;99.90;;;;;;6215638;23;20450;-71
2021/08/01 13:55:10;;;;;;;2.60;2.40;;;18.50;99.90;;;;;;6188706;23;20414;-72
2021/08/01 13:57:38;;;;;;;3.00;2.67;;;18.50;99.90;;;;;;6188645;23;20719;-72
2021/08/01 14:00:08;;;;;;;2.73;2.53;;;18.50;99.90;;;;;;6183575;23;20429;-72
2021/08/01 14:02:39;;;;;;;2.60;2.40;;;18.50;99.90;;;;;;6184860;23;20458;-71
2021/08/01 14:05:09;;;;;;;2.30;2.10;;;18.50;99.90;;;;;;6195585;23;20212;-71
2021/08/01 14:07:37;;;;;;;2.20;2.00;;;18.50;99.90;;;;;;6194819;23;20526;-71
2021/08/01 14:10:06;;;;;;;3.00;2.13;;;18.50;99.90;;;;;;6183531;23;20690;-71
2021/08/01 14:12:36;;;;;;;2.37;2.17;;;18.50;99.90;;;;;;6195027;23;20752;-71
2021/08/01 14:15:08;;;;;;;2.73;2.40;;;18.40;99.90;;;;;;6185433;23;20396;-71
2021/08/01 14:17:37;;;;;;;3.27;2.10;;;18.40;99.90;;;;;;6183510;23;20447;-71
2021/08/01 14:20:07;;;;;;;2.27;1.77;;;18.40;99.90;;;;;;6185547;23;20407;-71
2021/08/01 14:22:36;;;;;;;1.97;1.77;;;18.40;99.90;;;;;;6195124;23;20932;-71